sensor_id;sensor_type;location;lat;lon;timestamp;pressure;altitude;pressure_sealevel;temperature;humidity
60089;BME280;45961;53.574;55.878;2022-07-23T00:00:42;99276.94;;;14.42;79.23
60089;BME280;45961;53.574;55.878;2022-07-23T00:01:43;99281.41;;;14.37;79.06
60089;BME280;45961;53.574;55.878;2022-07-23T00:02:44;99277.16;;;14.32;79.17
60089;BME280;45961;53.574;55.878;2022-07-23T00:03:46;99284.13;;;14.30;79.16
60089;BME280;45961;53.574;55.878;2022-07-23T00:04:47;99281.63;;;14.26;79.47
60089;BME280;45961;53.574;55.878;2022-07-23T00:05:47;99286.09;;;14.21;79.54
60089;BME280;45961;53.574;55.878;2022-07-23T00:06:49;99282.63;;;14.20;80.05
60089;BME280;45961;53.574;55.878;2022-07-23T00:07:49;99285.22;;;14.20;80.21
60089;BME280;45961;53.574;55.878;2022-07-23T00:08:51;99285.34;;;14.14;80.50
60089;BME280;45961;53.574;55.878;2022-07-23T00:09:52;99288.00;;;14.13;80.49
60089;BME280;45961;53.574;55.878;2022-07-23T00:10:53;99288.13;;;14.05;80.67
60089;BME280;45961;53.574;55.878;2022-07-23T00:11:54;99289.97;;;14.00;80.48
60089;BME280;45961;53.574;55.878;2022-07-23T00:12:55;99286.53;;;13.98;80.33
60089;BME280;45961;53.574;55.878;2022-07-23T00:13:56;99291.75;;;13.98;80.24
60089;BME280;45961;53.574;55.878;2022-07-23T00:14:58;99286.63;;;13.93;80.06
60089;BME280;45961;53.574;55.878;2022-07-23T00:15:59;99287.53;;;13.91;79.75
60089;BME280;45961;53.574;55.878;2022-07-23T00:17:00;99288.44;;;13.90;79.94
60089;BME280;45961;53.574;55.878;2022-07-23T00:18:02;99268.78;;;13.75;80.03
60089;BME280;45961;53.574;55.878;2022-07-23T00:19:02;99290.31;;;13.81;80.27
60089;BME280;45961;53.574;55.878;2022-07-23T00:20:05;99293.72;;;13.85;80.17
60089;BME280;45961;53.574;55.878;2022-07-23T00:21:06;99296.41;;;13.80;80.64
60089;BME280;45961;53.574;55.878;2022-07-23T00:22:07;99285.13;;;13.83;81.03
60089;BME280;45961;53.574;55.878;2022-07-23T00:23:08;99290.22;;;13.86;80.90
60089;BME280;45961;53.574;55.878;2022-07-23T00:24:09;99291.22;;;13.80;81.04
60089;BME280;45961;53.574;55.878;2022-07-23T00:25:10;99298.16;;;13.80;81.10
60089;BME280;45961;53.574;55.878;2022-07-23T00:26:11;99293.88;;;13.77;81.08
60089;BME280;45961;53.574;55.878;2022-07-23T00:27:12;99292.94;;;13.81;81.31
60089;BME280;45961;53.574;55.878;2022-07-23T00:28:13;99284.31;;;13.79;81.49
60089;BME280;45961;53.574;55.878;2022-07-23T00:29:14;99285.97;;;13.82;81.52
60089;BME280;45961;53.574;55.878;2022-07-23T00:30:15;99292.84;;;13.86;81.44
60089;BME280;45961;53.574;55.878;2022-07-23T00:31:16;99297.19;;;13.87;81.54
60089;BME280;45961;53.574;55.878;2022-07-23T00:32:19;99294.50;;;13.90;81.87
60089;BME280;45961;53.574;55.878;2022-07-23T00:33:20;99291.75;;;13.98;81.74
60089;BME280;45961;53.574;55.878;2022-07-23T00:34:21;99288.44;;;13.91;81.55
60089;BME280;45961;53.574;55.878;2022-07-23T00:35:24;99294.44;;;13.93;81.63
60089;BME280;45961;53.574;55.878;2022-07-23T00:36:25;99280.69;;;13.87;81.68
60089;BME280;45961;53.574;55.878;2022-07-23T00:37:26;99293.63;;;13.91;81.86
60089;BME280;45961;53.574;55.878;2022-07-23T00:38:27;99297.19;;;13.87;81.75
60089;BME280;45961;53.574;55.878;2022-07-23T00:39:28;99293.63;;;13.91;81.65
60089;BME280;45961;53.574;55.878;2022-07-23T00:40:30;99297.09;;;13.92;81.31
60089;BME280;45961;53.574;55.878;2022-07-23T00:41:31;99293.63;;;13.91;81.10
60089;BME280;45961;53.574;55.878;2022-07-23T00:42:32;99293.53;;;13.94;81.13
60089;BME280;45961;53.574;55.878;2022-07-23T00:43:33;99295.44;;;13.88;81.28
60089;BME280;45961;53.574;55.878;2022-07-23T00:44:34;99296.25;;;13.90;81.30
60089;BME280;45961;53.574;55.878;2022-07-23T00:45:36;99287.75;;;13.80;81.49
60089;BME280;45961;53.574;55.878;2022-07-23T00:46:36;99304.13;;;13.85;81.28
60089;BME280;45961;53.574;55.878;2022-07-23T00:47:38;99296.25;;;13.90;81.14
60089;BME280;45961;53.574;55.878;2022-07-23T00:48:39;99291.88;;;13.90;81.17
60089;BME280;45961;53.574;55.878;2022-07-23T00:49:41;99297.22;;;13.84;81.56
60089;BME280;45961;53.574;55.878;2022-07-23T00:50:43;99305.78;;;13.89;81.73
60089;BME280;45961;53.574;55.878;2022-07-23T00:51:44;99301.50;;;13.87;81.55
60089;BME280;45961;53.574;55.878;2022-07-23T00:52:45;99299.78;;;13.86;81.55
60089;BME280;45961;53.574;55.878;2022-07-23T00:53:46;99313.63;;;13.88;81.52
60089;BME280;45961;53.574;55.878;2022-07-23T00:54:48;99306.69;;;13.88;81.43
60089;BME280;45961;53.574;55.878;2022-07-23T00:55:49;99300.63;;;13.86;81.70
60089;BME280;45961;53.574;55.878;2022-07-23T00:56:50;99311.03;;;13.88;81.34
60089;BME280;45961;53.574;55.878;2022-07-23T00:57:51;99311.91;;;13.87;81.49
60089;BME280;45961;53.574;55.878;2022-07-23T00:58:53;99316.25;;;13.86;81.54
60089;BME280;45961;53.574;55.878;2022-07-23T00:59:54;99316.16;;;13.91;81.18
60089;BME280;45961;53.574;55.878;2022-07-23T01:00:55;99307.50;;;13.90;81.46
60089;BME280;45961;53.574;55.878;2022-07-23T01:01:57;99313.50;;;13.94;81.47
60089;BME280;45961;53.574;55.878;2022-07-23T01:02:58;99313.41;;;14.00;81.38
60089;BME280;45961;53.574;55.878;2022-07-23T01:03:59;99317.59;;;14.07;81.39
60089;BME280;45961;53.574;55.878;2022-07-23T01:05:00;99311.56;;;14.05;81.36
60089;BME280;45961;53.574;55.878;2022-07-23T01:06:01;99315.00;;;14.07;81.23
60089;BME280;45961;53.574;55.878;2022-07-23T01:07:02;99309.06;;;14.00;81.40
60089;BME280;45961;53.574;55.878;2022-07-23T01:08:05;99315.16;;;13.98;81.47
60089;BME280;45961;53.574;55.878;2022-07-23T01:09:06;99313.41;;;14.00;81.12
60089;BME280;45961;53.574;55.878;2022-07-23T01:10:07;99310.75;;;14.01;80.73
60089;BME280;45961;53.574;55.878;2022-07-23T01:11:28;99305.56;;;14.01;80.41
60089;BME280;45961;53.574;55.878;2022-07-23T01:12:30;99316.72;;;14.08;80.41
60089;BME280;45961;53.574;55.878;2022-07-23T01:13:31;99319.97;;;14.18;80.30
60089;BME280;45961;53.574;55.878;2022-07-23T01:14:32;99315.66;;;14.17;80.47
60089;BME280;45961;53.574;55.878;2022-07-23T01:15:35;99297.78;;;13.98;80.63
60089;BME280;45961;53.574;55.878;2022-07-23T01:16:36;99316.56;;;14.14;80.58
60089;BME280;45961;53.574;55.878;2022-07-23T01:17:37;99325.09;;;14.22;80.53
60089;BME280;45961;53.574;55.878;2022-07-23T01:18:38;99330.28;;;14.24;80.27
60089;BME280;45961;53.574;55.878;2022-07-23T01:19:39;99319.81;;;14.25;80.27
60089;BME280;45961;53.574;55.878;2022-07-23T01:20:40;99328.38;;;14.30;80.54
60089;BME280;45961;53.574;55.878;2022-07-23T01:21:45;99329.25;;;14.31;80.52
60089;BME280;45961;53.574;55.878;2022-07-23T01:22:47;99316.41;;;14.23;80.86
60089;BME280;45961;53.574;55.878;2022-07-23T01:23:48;99325.81;;;14.29;80.58
60089;BME280;45961;53.574;55.878;2022-07-23T01:24:50;99335.34;;;14.31;80.40
60089;BME280;45961;53.574;55.878;2022-07-23T01:25:56;99328.38;;;14.32;80.41
60089;BME280;45961;53.574;55.878;2022-07-23T01:26:58;99329.13;;;14.37;80.40
60089;BME280;45961;53.574;55.878;2022-07-23T01:27:59;99332.44;;;14.45;80.52
60089;BME280;45961;53.574;55.878;2022-07-23T01:29:01;99333.19;;;14.52;79.83
60089;BME280;45961;53.574;55.878;2022-07-23T01:30:03;99323.59;;;14.54;79.55
60089;BME280;45961;53.574;55.878;2022-07-23T01:31:05;99320.88;;;14.59;79.05
60089;BME280;45961;53.574;55.878;2022-07-23T01:32:09;99329.50;;;14.62;78.85
60089;BME280;45961;53.574;55.878;2022-07-23T01:33:10;99324.16;;;14.68;78.69
60089;BME280;45961;53.574;55.878;2022-07-23T01:34:14;99327.56;;;14.70;78.63
60089;BME280;45961;53.574;55.878;2022-07-23T01:35:15;99326.63;;;14.74;78.29
60089;BME280;45961;53.574;55.878;2022-07-23T01:36:17;99334.25;;;14.84;78.00
60089;BME280;45961;53.574;55.878;2022-07-23T01:37:18;99324.56;;;14.89;77.87
60089;BME280;45961;53.574;55.878;2022-07-23T01:38:19;99332.09;;;15.01;78.01
60089;BME280;45961;53.574;55.878;2022-07-23T01:39:20;99329.38;;;15.05;78.15
60089;BME280;45961;53.574;55.878;2022-07-23T01:40:22;99332.63;;;15.15;78.04
60089;BME280;45961;53.574;55.878;2022-07-23T01:41:23;99335.03;;;15.24;77.67
60089;BME280;45961;53.574;55.878;2022-07-23T01:42:24;99327.59;;;15.43;77.79
60089;BME280;45961;53.574;55.878;2022-07-23T01:43:26;99331.28;;;15.72;76.72
60089;BME280;45961;53.574;55.878;2022-07-23T01:44:27;99328.94;;;16.25;75.90
60089;BME280;45961;53.574;55.878;2022-07-23T01:45:28;99322.84;;;16.85;73.82
60089;BME280;45961;53.574;55.878;2022-07-23T01:46:29;99326.84;;;17.50;71.63
60089;BME280;45961;53.574;55.878;2022-07-23T01:47:33;99317.69;;;18.13;69.58
60089;BME280;45961;53.574;55.878;2022-07-23T01:48:34;99299.88;;;18.68;67.58
60089;BME280;45961;53.574;55.878;2022-07-23T01:49:51;99314.63;;;19.59;64.91
60089;BME280;45961;53.574;55.878;2022-07-23T01:51:10;99307.66;;;20.19;62.19
60089;BME280;45961;53.574;55.878;2022-07-23T01:52:16;99307.56;;;20.60;60.79
60089;BME280;45961;53.574;55.878;2022-07-23T01:53:21;99308.56;;;20.76;59.23
60089;BME280;45961;53.574;55.878;2022-07-23T01:54:22;99312.50;;;20.85;59.12
60089;BME280;45961;53.574;55.878;2022-07-23T01:55:24;99317.44;;;20.74;59.04
60089;BME280;45961;53.574;55.878;2022-07-23T01:56:24;99314.28;;;20.46;59.23
60089;BME280;45961;53.574;55.878;2022-07-23T01:57:26;99319.41;;;20.31;59.55
60089;BME280;45961;53.574;55.878;2022-07-23T01:58:27;99326.78;;;20.41;60.25
60089;BME280;45961;53.574;55.878;2022-07-23T01:59:28;99313.50;;;20.44;59.95
60089;BME280;45961;53.574;55.878;2022-07-23T02:00:30;99301.59;;;20.56;59.54
60089;BME280;45961;53.574;55.878;2022-07-23T02:01:31;99311.69;;;20.65;59.14
60089;BME280;45961;53.574;55.878;2022-07-23T02:02:32;99316.56;;;20.73;58.50
60089;BME280;45961;53.574;55.878;2022-07-23T02:03:33;99310.19;;;20.79;58.63
60089;BME280;45961;53.574;55.878;2022-07-23T02:04:35;99314.53;;;21.16;59.69
60089;BME280;45961;53.574;55.878;2022-07-23T02:05:37;99316.75;;;21.06;57.88
60089;BME280;45961;53.574;55.878;2022-07-23T02:06:38;99315.44;;;21.34;58.73
60089;BME280;45961;53.574;55.878;2022-07-23T02:07:39;99314.91;;;21.26;58.73
60089;BME280;45961;53.574;55.878;2022-07-23T02:08:40;99314.06;;;21.44;57.51
60089;BME280;45961;53.574;55.878;2022-07-23T02:09:41;99317.03;;;21.19;57.28
60089;BME280;45961;53.574;55.878;2022-07-23T02:10:43;99310.88;;;21.37;58.22
60089;BME280;45961;53.574;55.878;2022-07-23T02:11:44;99318.09;;;21.68;57.76
60089;BME280;45961;53.574;55.878;2022-07-23T02:12:45;99318.84;;;21.53;56.21
60089;BME280;45961;53.574;55.878;2022-07-23T02:13:47;99318.44;;;21.78;57.01
60089;BME280;45961;53.574;55.878;2022-07-23T02:14:48;99318.22;;;22.33;56.30
60089;BME280;45961;53.574;55.878;2022-07-23T02:15:51;99324.97;;;21.71;56.10
60089;BME280;45961;53.574;55.878;2022-07-23T02:16:52;99319.47;;;21.76;55.58
60089;BME280;45961;53.574;55.878;2022-07-23T02:17:54;99325.06;;;21.35;56.02
60089;BME280;45961;53.574;55.878;2022-07-23T02:18:56;99317.63;;;21.43;56.49
60089;BME280;45961;53.574;55.878;2022-07-23T02:19:57;99314.31;;;22.07;55.55
60089;BME280;45961;53.574;55.878;2022-07-23T02:20:58;99323.41;;;22.35;54.39
60089;BME280;45961;53.574;55.878;2022-07-23T02:22:02;99307.09;;;22.28;54.65
60089;BME280;45961;53.574;55.878;2022-07-23T02:23:03;99322.13;;;22.26;54.53
60089;BME280;45961;53.574;55.878;2022-07-23T02:24:05;99319.09;;;22.50;53.49
60089;BME280;45961;53.574;55.878;2022-07-23T02:25:07;99318.56;;;21.23;55.34
60089;BME280;45961;53.574;55.878;2022-07-23T02:26:09;99317.50;;;20.72;56.36
60089;BME280;45961;53.574;55.878;2022-07-23T02:27:10;99325.41;;;20.72;57.05
60089;BME280;45961;53.574;55.878;2022-07-23T02:28:11;99327.22;;;20.70;57.77
60089;BME280;45961;53.574;55.878;2022-07-23T02:29:12;99329.25;;;21.20;57.07
60089;BME280;45961;53.574;55.878;2022-07-23T02:30:14;99327.13;;;21.09;57.47
60089;BME280;45961;53.574;55.878;2022-07-23T02:31:15;99321.88;;;21.63;56.62
60089;BME280;45961;53.574;55.878;2022-07-23T02:32:16;99321.72;;;21.83;55.86
60089;BME280;45961;53.574;55.878;2022-07-23T02:33:18;99330.84;;;21.93;55.51
60089;BME280;45961;53.574;55.878;2022-07-23T02:34:20;99310.44;;;22.14;55.83
60089;BME280;45961;53.574;55.878;2022-07-23T02:35:21;99320.63;;;21.70;55.36
60089;BME280;45961;53.574;55.878;2022-07-23T02:36:23;99319.84;;;21.85;56.07
60089;BME280;45961;53.574;55.878;2022-07-23T02:37:24;99319.94;;;21.49;56.28
60089;BME280;45961;53.574;55.878;2022-07-23T02:38:26;99318.63;;;21.22;56.74
60089;BME280;45961;53.574;55.878;2022-07-23T02:39:27;99321.75;;;21.30;57.17
60089;BME280;45961;53.574;55.878;2022-07-23T02:40:28;99319.56;;;21.20;57.55
60089;BME280;45961;53.574;55.878;2022-07-23T02:41:29;99322.63;;;20.75;58.59
60089;BME280;45961;53.574;55.878;2022-07-23T02:42:30;99311.88;;;20.99;58.52
60089;BME280;45961;53.574;55.878;2022-07-23T02:43:31;99321.13;;;20.69;58.58
60089;BME280;45961;53.574;55.878;2022-07-23T02:44:32;99320.50;;;20.83;59.08
60089;BME280;45961;53.574;55.878;2022-07-23T02:45:34;99317.13;;;20.99;58.59
60089;BME280;45961;53.574;55.878;2022-07-23T02:46:35;99316.22;;;20.81;59.05
60089;BME280;45961;53.574;55.878;2022-07-23T02:47:36;99319.19;;;20.92;58.63
60089;BME280;45961;53.574;55.878;2022-07-23T02:48:37;99315.44;;;21.34;58.38
60089;BME280;45961;53.574;55.878;2022-07-23T02:49:39;99315.69;;;21.64;57.58
60089;BME280;45961;53.574;55.878;2022-07-23T02:50:40;99307.16;;;21.76;57.09
60089;BME280;45961;53.574;55.878;2022-07-23T02:51:41;99313.00;;;21.99;56.63
60089;BME280;45961;53.574;55.878;2022-07-23T02:52:44;99313.31;;;22.27;56.27
60089;BME280;45961;53.574;55.878;2022-07-23T02:53:45;99315.28;;;21.89;56.60
60089;BME280;45961;53.574;55.878;2022-07-23T02:54:46;99316.06;;;21.56;57.32
60089;BME280;45961;53.574;55.878;2022-07-23T02:55:49;99321.16;;;21.06;57.91
60089;BME280;45961;53.574;55.878;2022-07-23T02:56:51;99321.16;;;21.06;58.68
60089;BME280;45961;53.574;55.878;2022-07-23T02:57:52;99308.69;;;20.92;59.37
60089;BME280;45961;53.574;55.878;2022-07-23T02:58:53;99305.63;;;21.18;59.67
60089;BME280;45961;53.574;55.878;2022-07-23T02:59:55;99317.16;;;21.52;58.42
60089;BME280;45961;53.574;55.878;2022-07-23T03:00:56;99321.81;;;21.11;58.87
60089;BME280;45961;53.574;55.878;2022-07-23T03:01:59;99311.56;;;21.41;58.65
60089;BME280;45961;53.574;55.878;2022-07-23T03:03:00;99321.97;;;22.12;57.41
60089;BME280;45961;53.574;55.878;2022-07-23T03:04:01;99315.09;;;22.42;56.62
60089;BME280;45961;53.574;55.878;2022-07-23T03:05:02;99319.38;;;22.77;56.18
60089;BME280;45961;53.574;55.878;2022-07-23T03:06:04;99306.28;;;22.59;54.82
60089;BME280;45961;53.574;55.878;2022-07-23T03:07:05;99316.84;;;22.59;54.90
60089;BME280;45961;53.574;55.878;2022-07-23T03:08:06;99313.00;;;22.81;55.62
60089;BME280;45961;53.574;55.878;2022-07-23T03:09:11;99314.69;;;22.66;54.56
60089;BME280;45961;53.574;55.878;2022-07-23T03:10:13;99313.19;;;22.94;54.56
60089;BME280;45961;53.574;55.878;2022-07-23T03:11:14;99314.22;;;23.37;54.01
60089;BME280;45961;53.574;55.878;2022-07-23T03:12:15;99312.75;;;23.01;53.82
60089;BME280;45961;53.574;55.878;2022-07-23T03:13:17;99311.06;;;23.00;54.33
60089;BME280;45961;53.574;55.878;2022-07-23T03:14:18;99318.84;;;23.33;53.66
60089;BME280;45961;53.574;55.878;2022-07-23T03:15:19;99311.63;;;22.89;54.31
60089;BME280;45961;53.574;55.878;2022-07-23T03:16:20;99317.91;;;22.87;54.98
60089;BME280;45961;53.574;55.878;2022-07-23T03:17:22;99318.19;;;22.82;55.11
60089;BME280;45961;53.574;55.878;2022-07-23T03:18:23;99330.25;;;22.55;55.55
60089;BME280;45961;53.574;55.878;2022-07-23T03:19:24;99319.66;;;22.23;56.01
60089;BME280;45961;53.574;55.878;2022-07-23T03:20:25;99329.78;;;22.31;56.55
60089;BME280;45961;53.574;55.878;2022-07-23T03:21:27;99326.63;;;22.73;56.15
60089;BME280;45961;53.574;55.878;2022-07-23T03:22:28;99326.16;;;22.49;55.57
60089;BME280;45961;53.574;55.878;2022-07-23T03:23:29;99322.94;;;22.60;55.69
60089;BME280;45961;53.574;55.878;2022-07-23T03:24:30;99330.69;;;22.14;56.12
60089;BME280;45961;53.574;55.878;2022-07-23T03:25:50;99330.63;;;22.80;55.43
60089;BME280;45961;53.574;55.878;2022-07-23T03:26:51;99332.31;;;22.65;55.36
60089;BME280;45961;53.574;55.878;2022-07-23T03:27:52;99322.44;;;22.69;55.52
60089;BME280;45961;53.574;55.878;2022-07-23T03:28:54;99329.97;;;23.08;55.03
60089;BME280;45961;53.574;55.878;2022-07-23T03:29:58;99326.06;;;23.00;55.04
60089;BME280;45961;53.574;55.878;2022-07-23T03:30:59;99330.38;;;23.17;55.05
60089;BME280;45961;53.574;55.878;2022-07-23T03:32:00;99324.88;;;23.35;55.12
60089;BME280;45961;53.574;55.878;2022-07-23T03:33:03;99331.38;;;23.60;54.13
60089;BME280;45961;53.574;55.878;2022-07-23T03:34:05;99323.91;;;23.52;53.81
60089;BME280;45961;53.574;55.878;2022-07-23T03:35:06;99316.09;;;23.35;54.41
60089;BME280;45961;53.574;55.878;2022-07-23T03:36:08;99326.28;;;23.57;54.37
60089;BME280;45961;53.574;55.878;2022-07-23T03:37:13;99325.66;;;23.22;54.66
60089;BME280;45961;53.574;55.878;2022-07-23T03:38:15;99327.81;;;23.15;54.46
60089;BME280;45961;53.574;55.878;2022-07-23T03:39:16;99327.72;;;23.17;54.62
60089;BME280;45961;53.574;55.878;2022-07-23T03:40:18;99322.78;;;23.10;54.38
60089;BME280;45961;53.574;55.878;2022-07-23T03:41:20;99324.97;;;23.34;54.25
60089;BME280;45961;53.574;55.878;2022-07-23T03:42:21;99329.44;;;23.18;54.88
60089;BME280;45961;53.574;55.878;2022-07-23T03:43:22;99329.84;;;23.26;54.74
60089;BME280;45961;53.574;55.878;2022-07-23T03:44:25;99317.94;;;23.49;54.33
60089;BME280;45961;53.574;55.878;2022-07-23T03:45:26;99323.81;;;23.54;53.66
60089;BME280;45961;53.574;55.878;2022-07-23T03:46:27;99337.13;;;23.52;53.74
60089;BME280;45961;53.574;55.878;2022-07-23T03:47:29;99321.16;;;23.84;53.32
60089;BME280;45961;53.574;55.878;2022-07-23T03:48:30;99325.53;;;23.99;52.87
60089;BME280;45961;53.574;55.878;2022-07-23T03:49:31;99317.41;;;24.02;52.58
60089;BME280;45961;53.574;55.878;2022-07-23T03:50:32;99320.41;;;23.52;53.17
60089;BME280;45961;53.574;55.878;2022-07-23T03:51:33;99318.41;;;23.55;53.35
60089;BME280;45961;53.574;55.878;2022-07-23T03:52:34;99319.00;;;23.91;52.59
60089;BME280;45961;53.574;55.878;2022-07-23T03:53:35;99313.72;;;23.76;53.08
60089;BME280;45961;53.574;55.878;2022-07-23T03:54:36;99316.19;;;23.63;53.37
60089;BME280;45961;53.574;55.878;2022-07-23T03:55:37;99315.03;;;23.53;53.29
60089;BME280;45961;53.574;55.878;2022-07-23T03:56:38;99320.16;;;23.56;52.89
60089;BME280;45961;53.574;55.878;2022-07-23T03:57:40;99320.03;;;23.74;52.44
60089;BME280;45961;53.574;55.878;2022-07-23T03:58:41;99314.56;;;23.77;52.28
60089;BME280;45961;53.574;55.878;2022-07-23T03:59:42;99312.31;;;23.99;51.78
60089;BME280;45961;53.574;55.878;2022-07-23T04:00:43;99313.91;;;24.16;51.52
60089;BME280;45961;53.574;55.878;2022-07-23T04:01:44;99313.31;;;24.41;51.36
60089;BME280;45961;53.574;55.878;2022-07-23T04:02:45;99316.50;;;24.46;51.34
60089;BME280;45961;53.574;55.878;2022-07-23T09:36:30;99201.09;;;28.03;37.77
60089;BME280;45961;53.574;55.878;2022-07-23T09:37:31;99208.34;;;28.01;37.81
60089;BME280;45961;53.574;55.878;2022-07-23T09:38:32;99207.03;;;27.95;36.97
60089;BME280;45961;53.574;55.878;2022-07-23T09:39:34;99198.91;;;27.97;37.45
60089;BME280;45961;53.574;55.878;2022-07-23T09:40:35;99200.72;;;27.96;37.70
60089;BME280;45961;53.574;55.878;2022-07-23T09:41:46;99205.34;;;27.94;42.44
60089;BME280;45961;53.574;55.878;2022-07-23T09:42:55;99200.81;;;27.50;51.72
60089;BME280;45961;53.574;55.878;2022-07-23T09:43:56;99209.59;;;27.39;44.61
60089;BME280;45961;53.574;55.878;2022-07-23T09:44:57;99209.16;;;27.10;44.51
60089;BME280;45961;53.574;55.878;2022-07-23T09:46:26;99215.41;;;26.85;47.28
60089;BME280;45961;53.574;55.878;2022-07-23T09:47:30;99190.34;;;26.65;42.75
60089;BME280;45961;53.574;55.878;2022-07-23T09:48:31;99208.31;;;26.62;41.59
60089;BME280;45961;53.574;55.878;2022-07-23T09:49:33;99206.38;;;26.64;43.73
60089;BME280;45961;53.574;55.878;2022-07-23T09:50:34;99195.19;;;26.47;45.86
60089;BME280;45961;53.574;55.878;2022-07-23T09:51:47;99197.16;;;26.56;42.66
60089;BME280;45961;53.574;55.878;2022-07-23T09:52:49;99207.16;;;26.53;45.96
60089;BME280;45961;53.574;55.878;2022-07-23T09:53:50;99206.50;;;26.62;47.92
60089;BME280;45961;53.574;55.878;2022-07-23T09:54:51;99198.91;;;26.69;42.64
60089;BME280;45961;53.574;55.878;2022-07-23T09:55:58;99208.34;;;26.73;41.76
60089;BME280;45961;53.574;55.878;2022-07-23T09:57:09;99204.19;;;26.81;42.96
60089;BME280;45961;53.574;55.878;2022-07-23T09:58:14;99208.34;;;26.73;42.70
60089;BME280;45961;53.574;55.878;2022-07-23T09:59:18;99194.44;;;26.69;44.93
60089;BME280;45961;53.574;55.878;2022-07-23T10:00:23;99199.47;;;26.85;40.81
60089;BME280;45961;53.574;55.878;2022-07-23T10:01:24;99198.13;;;26.79;42.41
60089;BME280;45961;53.574;55.878;2022-07-23T10:02:25;99196.94;;;26.83;40.07
60089;BME280;45961;53.574;55.878;2022-07-23T10:03:54;99190.56;;;26.86;41.61
60089;BME280;45961;53.574;55.878;2022-07-23T10:05:16;99190.38;;;27.00;41.18
60089;BME280;45961;53.574;55.878;2022-07-23T10:06:36;99185.13;;;27.12;42.50
60089;BME280;45961;53.574;55.878;2022-07-23T10:08:01;99185.38;;;27.20;41.21
60089;BME280;45961;53.574;55.878;2022-07-23T10:09:40;99181.31;;;27.27;40.60
60089;BME280;45961;53.574;55.878;2022-07-23T10:11:04;99180.09;;;27.31;40.95
60089;BME280;45961;53.574;55.878;2022-07-23T10:12:29;99175.06;;;27.50;41.60
60089;BME280;45961;53.574;55.878;2022-07-23T10:13:49;99182.06;;;27.51;39.29
60089;BME280;45961;53.574;55.878;2022-07-23T10:15:22;99169.25;;;27.56;39.45
60089;BME280;45961;53.574;55.878;2022-07-23T10:16:23;99182.78;;;27.65;38.81
60089;BME280;45961;53.574;55.878;2022-07-23T10:17:25;99170.72;;;27.61;39.24
60089;BME280;45961;53.574;55.878;2022-07-23T10:18:26;99177.47;;;27.53;39.32
60089;BME280;45961;53.574;55.878;2022-07-23T10:19:27;99176.16;;;27.70;39.01
60089;BME280;45961;53.574;55.878;2022-07-23T10:20:28;99182.84;;;27.76;39.52
60089;BME280;45961;53.574;55.878;2022-07-23T10:21:47;99179.78;;;27.69;39.25
60089;BME280;45961;53.574;55.878;2022-07-23T10:26:10;99173.41;;;27.94;38.29
60089;BME280;45961;53.574;55.878;2022-07-23T10:30:18;99181.63;;;28.02;37.29
60089;BME280;45961;53.574;55.878;2022-07-23T10:32:49;99185.22;;;28.13;38.06
60089;BME280;45961;53.574;55.878;2022-07-23T10:35:12;99167.59;;;28.00;38.28
60089;BME280;45961;53.574;55.878;2022-07-23T10:36:41;99179.44;;;28.08;37.54
60089;BME280;45961;53.574;55.878;2022-07-23T10:37:47;99181.72;;;28.12;37.50
60089;BME280;45961;53.574;55.878;2022-07-23T10:38:58;99169.50;;;28.21;37.04
60089;BME280;45961;53.574;55.878;2022-07-23T10:40:19;99173.28;;;28.07;35.66
60089;BME280;45961;53.574;55.878;2022-07-23T10:41:39;99175.56;;;28.12;35.73
60089;BME280;45961;53.574;55.878;2022-07-23T10:42:41;99183.56;;;28.00;36.45
60089;BME280;45961;53.574;55.878;2022-07-23T10:43:42;99175.00;;;27.74;36.95
60089;BME280;45961;53.574;55.878;2022-07-23T10:44:45;99172.91;;;27.89;36.79
60089;BME280;45961;53.574;55.878;2022-07-23T10:45:48;99174.84;;;28.10;36.74
60089;BME280;45961;53.574;55.878;2022-07-23T10:47:00;99174.22;;;28.17;35.95
60089;BME280;45961;53.574;55.878;2022-07-23T10:48:21;99161.50;;;28.32;35.96
60089;BME280;45961;53.574;55.878;2022-07-23T10:49:30;99168.88;;;28.51;35.79
60089;BME280;45961;53.574;55.878;2022-07-23T10:50:31;99176.34;;;28.57;35.89
60089;BME280;45961;53.574;55.878;2022-07-23T10:51:35;99166.69;;;28.34;34.25
60089;BME280;45961;53.574;55.878;2022-07-23T10:52:36;99174.97;;;28.08;34.13
60089;BME280;45961;53.574;55.878;2022-07-23T10:54:54;99161.19;;;27.92;34.25
60089;BME280;45961;53.574;55.878;2022-07-23T10:55:56;99172.78;;;28.02;35.01
60089;BME280;45961;53.574;55.878;2022-07-23T10:58:00;99158.38;;;28.16;36.35
60089;BME280;45961;53.574;55.878;2022-07-23T10:59:04;99170.34;;;28.44;36.02
60089;BME280;45961;53.574;55.878;2022-07-23T11:01:35;99169.69;;;28.63;36.53
60089;BME280;45961;53.574;55.878;2022-07-23T11:02:38;99174.22;;;28.72;37.01
60089;BME280;45961;53.574;55.878;2022-07-23T11:03:39;99171.59;;;28.61;36.66
60089;BME280;45961;53.574;55.878;2022-07-23T11:04:51;99173.00;;;28.44;36.84
60089;BME280;45961;53.574;55.878;2022-07-23T11:05:53;99174.09;;;28.41;37.15
60089;BME280;45961;53.574;55.878;2022-07-23T11:08:15;99180.66;;;28.15;37.83
60089;BME280;45961;53.574;55.878;2022-07-23T11:09:40;99177.75;;;28.07;37.02
60089;BME280;45961;53.574;55.878;2022-07-23T11:17:19;99164.38;;;28.51;36.60
60089;BME280;45961;53.574;55.878;2022-07-23T11:25:01;99162.91;;;28.59;36.23
60089;BME280;45961;53.574;55.878;2022-07-23T11:26:02;99165.84;;;28.76;36.15
60089;BME280;45961;53.574;55.878;2022-07-23T11:27:03;99156.00;;;28.88;36.20
60089;BME280;45961;53.574;55.878;2022-07-23T11:28:14;99168.78;;;28.94;36.31
60089;BME280;45961;53.574;55.878;2022-07-23T11:30:40;99163.00;;;29.00;36.13
60089;BME280;45961;53.574;55.878;2022-07-23T11:35:33;99160.19;;;28.70;35.87
60089;BME280;45961;53.574;55.878;2022-07-23T11:36:50;99159.44;;;28.47;36.16